createdAt,value
2016-09-28T00:00:44.234Z,16.6
2016-09-28T00:01:43.874Z,16.49
2016-09-28T00:02:44.353Z,16.4
2016-09-28T00:03:43.780Z,16.3
2016-09-28T00:04:43.775Z,16.26
2016-09-28T00:05:44.030Z,16.15
2016-09-28T00:06:43.997Z,16.16
2016-09-28T00:07:43.701Z,16.18
2016-09-28T00:08:43.567Z,16.15
2016-09-28T00:09:44.009Z,16.14
2016-09-28T00:10:43.758Z,16.25
2016-09-28T00:11:43.455Z,16.12
2016-09-28T00:12:43.661Z,16.07
2016-09-28T00:13:43.608Z,16.15
2016-09-28T00:14:43.579Z,16.09
2016-09-28T00:15:43.556Z,16.07
2016-09-28T00:16:42.895Z,16.11
2016-09-28T00:17:43.310Z,16
2016-09-28T00:18:43.447Z,15.94
2016-09-28T00:19:43.351Z,15.92
2016-09-28T00:20:43.462Z,16
2016-09-28T00:21:43.256Z,16.11
2016-09-28T00:22:43.173Z,16.16
2016-09-28T00:23:43.126Z,16.25
2016-09-28T00:24:43.692Z,16.33
2016-09-28T00:25:43.024Z,16.2
2016-09-28T00:26:42.663Z,16.09
2016-09-28T00:27:42.623Z,16.18
2016-09-28T00:28:42.933Z,16.06
2016-09-28T00:29:42.839Z,16
2016-09-28T00:30:43.005Z,16.04
2016-09-28T00:31:42.428Z,16.04
2016-09-28T00:32:56.962Z,16.07
2016-09-28T00:33:42.325Z,16.04
2016-09-28T00:34:42.521Z,16.03
2016-09-28T00:35:42.442Z,15.99
2016-09-28T00:36:42.493Z,16.06
2016-09-28T00:37:42.458Z,16.06
2016-09-28T00:38:42.391Z,16.06
2016-09-28T00:39:42.349Z,16.06
2016-09-28T00:40:42.320Z,16.09
2016-09-28T00:41:42.259Z,16.06
2016-09-28T00:42:42.204Z,16
2016-09-28T00:43:42.168Z,16.03
2016-09-28T00:44:42.109Z,16.01
2016-09-28T00:45:41.758Z,16.03
2016-09-28T00:46:42.029Z,16
2016-09-28T00:47:41.984Z,15.88
2016-09-28T00:48:41.915Z,15.85
2016-09-28T00:49:41.872Z,15.85
2016-09-28T00:50:42.105Z,15.84
2016-09-28T00:51:41.795Z,15.92
2016-09-28T00:52:41.714Z,15.96
2016-09-28T00:53:41.683Z,15.97
2016-09-28T00:54:41.627Z,16.04
2016-09-28T00:55:41.769Z,16.03
2016-09-28T00:56:41.553Z,16.09
2016-09-28T00:57:41.696Z,16.01
2016-09-28T00:58:41.462Z,15.97
2016-09-28T00:59:41.387Z,15.86
2016-09-28T01:00:41.031Z,15.86
2016-09-28T01:01:41.186Z,15.92
2016-09-28T01:02:40.941Z,15.88
2016-09-28T01:03:41.202Z,15.92
2016-09-28T01:04:41.188Z,15.88
2016-09-28T01:05:40.988Z,15.84
2016-09-28T01:06:40.740Z,15.88
2016-09-28T01:07:40.981Z,15.96
2016-09-28T01:08:40.949Z,16.01
2016-09-28T01:09:40.290Z,15.97
2016-09-28T01:10:40.753Z,16.03
2016-09-28T01:11:40.807Z,16.04
2016-09-28T01:12:40.745Z,15.99
2016-09-28T01:13:40.697Z,16.01
2016-09-28T01:14:40.665Z,16.01
2016-09-28T01:15:40.312Z,16
2016-09-28T01:16:40.579Z,16.01
2016-09-28T01:17:40.700Z,15.99
2016-09-28T01:18:40.657Z,15.86
2016-09-28T01:19:39.812Z,15.81
2016-09-28T01:20:39.762Z,15.85
2016-09-28T01:21:40.024Z,15.85
2016-09-28T01:22:40.257Z,15.96
2016-09-28T01:23:39.598Z,15.92
2016-09-28T01:24:40.161Z,15.78
2016-09-28T01:25:39.821Z,15.74
2016-09-28T01:26:40.062Z,15.68
2016-09-28T01:27:39.419Z,15.66
2016-09-28T01:28:39.866Z,15.57
2016-09-28T01:29:40.126Z,15.52
2016-09-28T01:30:39.640Z,15.45
2016-09-28T01:31:39.832Z,15.46
2016-09-28T01:32:39.476Z,15.39
2016-09-28T01:33:39.433Z,15.33
2016-09-28T01:34:39.569Z,15.36
2016-09-28T01:35:39.626Z,15.39
2016-09-28T01:36:39.702Z,15.45
2016-09-28T01:37:39.534Z,15.52
2016-09-28T01:38:39.507Z,15.51
2016-09-28T01:39:39.513Z,15.49
2016-09-28T01:40:39.171Z,15.6
2016-09-28T01:41:39.409Z,15.74
2016-09-28T01:42:39.012Z,15.74
2016-09-28T01:43:38.949Z,15.67
2016-09-28T01:44:39.234Z,15.72
2016-09-28T01:45:39.161Z,15.79
2016-09-28T01:46:39.147Z,15.74
2016-09-28T01:47:38.752Z,15.72
2016-09-28T01:48:39.115Z,15.75
2016-09-28T01:49:38.692Z,15.79
2016-09-28T01:50:39.006Z,15.88
2016-09-28T01:51:38.861Z,15.96
2016-09-28T01:52:38.500Z,15.96
2016-09-28T01:53:38.646Z,16.03
2016-09-28T01:54:38.732Z,15.99
2016-09-28T01:55:38.376Z,15.82
2016-09-28T01:56:38.305Z,15.89
2016-09-28T01:57:38.257Z,15.85
2016-09-28T01:58:38.538Z,15.79
2016-09-28T01:59:38.361Z,15.72
2016-09-28T02:00:38.672Z,15.75
2016-09-28T02:01:38.589Z,15.63
2016-09-28T02:02:38.018Z,15.72
2016-09-28T02:03:37.963Z,15.78
2016-09-28T02:04:38.630Z,15.79
2016-09-28T02:05:38.385Z,15.84
2016-09-28T02:06:38.121Z,15.84
2016-09-28T02:07:38.285Z,15.79
2016-09-28T02:08:38.432Z,15.76
2016-09-28T02:09:37.984Z,15.66
2016-09-28T02:10:37.620Z,15.52
2016-09-28T02:11:38.310Z,15.56
2016-09-28T02:12:37.732Z,15.45
2016-09-28T02:13:37.189Z,15.39
2016-09-28T02:14:37.760Z,15.38
2016-09-28T02:15:37.680Z,15.56
2016-09-28T02:16:37.329Z,15.6
2016-09-28T02:17:37.278Z,15.48
2016-09-28T02:18:37.245Z,15.56
2016-09-28T02:19:37.080Z,15.56
2016-09-28T02:20:37.456Z,15.63
2016-09-28T02:21:37.078Z,15.59
2016-09-28T02:22:37.384Z,15.61
2016-09-28T02:23:37.295Z,15.6
2016-09-28T02:24:36.939Z,15.57
2016-09-28T02:25:37.188Z,15.48
2016-09-28T02:26:37.149Z,15.63
2016-09-28T02:27:36.806Z,15.67
2016-09-28T02:28:37.253Z,15.64
2016-09-28T02:29:37.084Z,15.64
2016-09-28T02:30:36.846Z,15.59
2016-09-28T02:31:36.621Z,15.6
2016-09-28T02:32:37.264Z,15.57
2016-09-28T02:33:36.521Z,15.64
2016-09-28T02:34:36.345Z,15.76
2016-09-28T02:35:36.103Z,15.76
2016-09-28T02:36:36.851Z,15.74
2016-09-28T02:37:36.814Z,15.76
2016-09-28T02:38:36.787Z,15.76
2016-09-28T02:39:36.710Z,15.84
2016-09-28T02:40:36.470Z,15.79
2016-09-28T02:41:36.111Z,15.85
2016-09-28T02:42:35.748Z,15.84
2016-09-28T02:43:36.011Z,15.86
2016-09-28T02:44:36.499Z,15.88
2016-09-28T02:45:35.921Z,15.97
2016-09-28T02:46:35.869Z,15.97
2016-09-28T02:47:35.839Z,15.85
2016-09-28T02:48:36.103Z,15.85
2016-09-28T02:49:36.036Z,15.78
2016-09-28T02:50:35.878Z,15.79
2016-09-28T02:51:36.164Z,15.79
2016-09-28T02:52:35.593Z,15.76
2016-09-28T02:53:35.738Z,15.88
2016-09-28T02:54:35.472Z,15.92
2016-09-28T02:55:35.449Z,15.82
2016-09-28T02:56:35.695Z,16.11
2016-09-28T02:57:35.638Z,16.04
2016-09-28T02:58:35.285Z,16.07
2016-09-28T02:59:35.513Z,16.07
2016-09-28T03:00:35.507Z,16.04
2016-09-28T03:01:35.149Z,16.03
2016-09-28T03:02:35.684Z,16.04
2016-09-28T03:03:35.040Z,16.03
2016-09-28T03:04:34.994Z,16.07
2016-09-28T03:05:35.650Z,15.97
2016-09-28T03:06:35.415Z,15.82
2016-09-28T03:07:34.909Z,15.82
2016-09-28T03:08:35.387Z,16
2016-09-28T03:09:35.066Z,16
2016-09-28T03:10:36.412Z,16
2016-09-28T03:11:35.162Z,16.06
2016-09-28T03:12:34.933Z,16.06
2016-09-28T03:13:34.557Z,16.06
2016-09-28T03:14:34.829Z,16.07
2016-09-28T03:15:34.780Z,16.06
2016-09-28T03:16:34.610Z,16.14
2016-09-28T03:17:35.077Z,16.11
2016-09-28T03:18:35.080Z,16.16
2016-09-28T03:19:34.570Z,16.15
2016-09-28T03:20:34.729Z,16.2
2016-09-28T03:21:34.894Z,16.25
2016-09-28T03:22:34.327Z,16.26
2016-09-28T03:23:34.399Z,16.27
2016-09-28T03:24:34.428Z,16.31
2016-09-28T03:25:34.531Z,16.16
2016-09-28T03:26:34.148Z,16.35
2016-09-28T03:27:33.884Z,16.26
2016-09-28T03:28:33.830Z,16.42
2016-09-28T03:29:33.784Z,16.42
2016-09-28T03:30:34.447Z,16.45
2016-09-28T03:31:33.707Z,16.55
2016-09-28T03:32:33.704Z,16.63
2016-09-28T03:33:33.823Z,16.63
2016-09-28T03:34:34.145Z,16.63
2016-09-28T03:35:33.825Z,16.59
2016-09-28T03:36:33.965Z,16.5
2016-09-28T03:37:33.398Z,16.4
2016-09-28T03:38:33.684Z,16.27
2016-09-28T03:39:33.830Z,16.27
2016-09-28T03:40:33.564Z,16.34
2016-09-28T03:41:32.893Z,16.27
2016-09-28T03:42:33.669Z,16.3
2016-09-28T03:43:33.110Z,16.18
2016-09-28T03:44:33.663Z,16.18
2016-09-28T03:45:32.706Z,16.06
2016-09-28T03:46:32.979Z,16.09
2016-09-28T03:47:33.248Z,16.23
2016-09-28T03:48:32.643Z,16.18
2016-09-28T03:49:32.509Z,16.12
2016-09-28T03:50:32.791Z,16.2
2016-09-28T03:51:33.082Z,16.25
2016-09-28T03:52:32.769Z,16.16
2016-09-28T03:53:32.833Z,16.2
2016-09-28T03:54:32.879Z,16.18
2016-09-28T03:55:33.154Z,16.04
2016-09-28T03:56:32.909Z,16.14
2016-09-28T03:57:32.980Z,16.07
2016-09-28T03:58:33.884Z,16.01
2016-09-28T03:59:32.539Z,15.97
2016-09-28T04:00:32.614Z,15.97
2016-09-28T04:01:32.790Z,16
2016-09-28T04:02:32.396Z,15.99
2016-09-28T04:03:32.580Z,16.06
2016-09-28T04:04:32.411Z,16.03
2016-09-28T04:05:32.255Z,16.11
2016-09-28T04:06:31.684Z,16.09
2016-09-28T04:07:32.255Z,16.14
2016-09-28T04:08:32.205Z,16.03
2016-09-28T04:09:32.358Z,16.11
2016-09-28T04:10:31.795Z,16.07
2016-09-28T04:11:32.060Z,16.04
2016-09-28T04:12:32.023Z,16.15
2016-09-28T04:13:32.373Z,16.14
2016-09-28T04:14:31.612Z,16.07
2016-09-28T04:15:31.582Z,16.04
2016-09-28T04:16:31.837Z,16.04
2016-09-28T04:17:31.477Z,16.01
2016-09-28T04:18:31.935Z,16.09
2016-09-28T04:19:31.680Z,16.04
2016-09-28T04:20:31.394Z,16.06
2016-09-28T04:21:31.271Z,16.04
2016-09-28T04:22:31.572Z,16.04
2016-09-28T04:23:31.232Z,16.04
2016-09-28T04:24:31.676Z,15.94
2016-09-28T04:25:31.419Z,15.97
2016-09-28T04:26:30.728Z,15.99
2016-09-28T04:27:30.983Z,16.01
2016-09-28T04:28:30.944Z,15.96
2016-09-28T04:29:30.886Z,15.93
2016-09-28T04:30:31.174Z,15.84
2016-09-28T04:31:31.096Z,15.86
2016-09-28T04:32:31.063Z,15.78
2016-09-28T04:33:30.700Z,15.76
2016-09-28T04:34:30.642Z,15.81
2016-09-28T04:35:30.813Z,15.78
2016-09-28T04:36:30.235Z,15.79
2016-09-28T04:37:30.806Z,15.79
2016-09-28T04:38:30.442Z,15.76
2016-09-28T04:39:30.624Z,15.81
2016-09-28T04:40:30.864Z,15.76
2016-09-28T04:41:30.300Z,15.68
2016-09-28T04:42:30.248Z,15.63
2016-09-28T04:43:30.524Z,15.61
2016-09-28T04:44:30.474Z,15.59
2016-09-28T04:45:30.420Z,15.54
2016-09-28T04:46:30.059Z,15.59
2016-09-28T04:47:30.319Z,15.54
2016-09-28T04:48:30.265Z,15.54
2016-09-28T04:49:30.122Z,15.54
2016-09-28T04:50:30.066Z,15.51
2016-09-28T04:51:30.011Z,15.56
2016-09-28T04:52:30.075Z,15.59
2016-09-28T04:53:29.917Z,15.7
2016-09-28T04:54:30.167Z,15.68
2016-09-28T04:55:29.928Z,15.68
2016-09-28T04:56:29.562Z,15.82
2016-09-28T04:57:29.823Z,15.78
2016-09-28T04:58:29.786Z,15.85
2016-09-28T04:59:29.782Z,15.85
2016-09-28T05:00:29.688Z,15.78
2016-09-28T05:01:29.628Z,15.79
2016-09-28T05:02:29.976Z,15.75
2016-09-28T05:03:29.520Z,15.84
2016-09-28T05:04:29.502Z,15.89
2016-09-28T05:05:29.644Z,15.72
2016-09-28T05:06:29.404Z,15.81
2016-09-28T05:07:29.415Z,15.86
2016-09-28T05:08:29.297Z,15.93
2016-09-28T05:09:29.444Z,16.01
2016-09-28T05:10:29.213Z,16
2016-09-28T05:11:29.037Z,15.97
2016-09-28T05:12:28.810Z,16
2016-09-28T05:13:28.804Z,15.89
2016-09-28T05:14:29.082Z,16.03
2016-09-28T05:15:29.063Z,16.03
2016-09-28T05:16:28.902Z,16.15
2016-09-28T05:17:28.849Z,16.15
2016-09-28T05:18:28.501Z,16.07
2016-09-28T05:19:28.458Z,16.16
2016-09-28T05:20:28.709Z,16.3
2016-09-28T05:21:28.374Z,16.31
2016-09-28T05:22:28.610Z,16.3
2016-09-28T05:23:28.545Z,16.3
2016-09-28T05:24:28.521Z,16.26
2016-09-28T05:25:28.156Z,16.33
2016-09-28T05:26:28.428Z,16.23
2016-09-28T05:27:28.054Z,16.33
2016-09-28T05:28:28.514Z,16.33
2016-09-28T05:29:28.266Z,16.33
2016-09-28T05:30:28.258Z,16.4
2016-09-28T05:31:28.173Z,16.41
2016-09-28T05:32:28.115Z,16.44
2016-09-28T05:33:28.075Z,16.44
2016-09-28T05:34:28.023Z,16.48
2016-09-28T05:35:27.975Z,16.5
2016-09-28T05:36:27.620Z,16.49
2016-09-28T05:37:28.086Z,16.41
2016-09-28T05:38:27.739Z,16.34
2016-09-28T05:39:27.773Z,16.53
2016-09-28T05:40:27.955Z,16.55
2016-09-28T05:41:27.684Z,16.55
2016-09-28T05:42:27.634Z,16.59
2016-09-28T05:43:27.488Z,16.49
2016-09-28T05:44:27.544Z,16.55
2016-09-28T05:45:27.203Z,16.56
2016-09-28T05:46:27.481Z,16.65
2016-09-28T05:47:27.429Z,16.55
2016-09-28T05:48:27.359Z,16.56
2016-09-28T05:49:27.503Z,16.48
2016-09-28T05:50:27.251Z,16.5
2016-09-28T05:51:26.894Z,16.58
2016-09-28T05:52:27.162Z,16.67
2016-09-28T05:53:27.106Z,16.68
2016-09-28T05:54:27.064Z,16.62
2016-09-28T05:55:27.019Z,16.6
2016-09-28T05:56:26.988Z,16.7
2016-09-28T05:57:26.934Z,16.63
2016-09-28T05:58:26.875Z,16.55
2016-09-28T05:59:27.016Z,16.53
2016-09-28T06:00:26.474Z,16.5
2016-09-28T06:01:26.721Z,16.41
2016-09-28T06:02:26.379Z,16.3
2016-09-28T06:03:26.646Z,16.41
2016-09-28T06:04:26.283Z,16.42
2016-09-28T06:05:26.438Z,16.49
2016-09-28T06:06:26.696Z,16.48
2016-09-28T06:07:26.126Z,16.52
2016-09-28T06:08:26.085Z,16.56
2016-09-28T06:09:26.255Z,16.63
2016-09-28T06:10:25.983Z,16.68
2016-09-28T06:11:26.243Z,16.74
2016-09-28T06:12:26.188Z,16.73
2016-09-28T06:13:25.843Z,16.67
2016-09-28T06:14:25.794Z,16.8
2016-09-28T06:15:26.071Z,16.81
2016-09-28T06:16:26.245Z,16.71
2016-09-28T06:17:25.952Z,16.68
2016-09-28T06:18:26.359Z,16.59
2016-09-28T06:19:27.209Z,16.59
2016-09-28T06:20:26.627Z,16.71
2016-09-28T06:21:25.768Z,16.68
2016-09-28T06:22:25.598Z,16.68
2016-09-28T06:23:25.661Z,16.62
2016-09-28T06:24:25.602Z,16.63
2016-09-28T06:25:39.830Z,16.62
2016-09-28T06:26:25.220Z,16.63
2016-09-28T06:27:25.467Z,16.6
2016-09-28T06:28:25.409Z,16.63
2016-09-28T06:29:24.774Z,16.63
2016-09-28T06:30:25.528Z,16.58
2016-09-28T06:31:25.287Z,16.58
2016-09-28T06:32:24.930Z,16.5
2016-09-28T06:33:25.179Z,16.52
2016-09-28T06:34:25.033Z,16.49
2016-09-28T06:35:25.117Z,16.5
2016-09-28T06:36:24.796Z,16.48
2016-09-28T06:37:25.015Z,16.59
2016-09-28T06:38:24.841Z,16.59
2016-09-28T06:39:24.905Z,16.65
2016-09-28T06:40:24.845Z,16.74
2016-09-28T06:41:24.805Z,16.73
2016-09-28T06:42:24.650Z,16.67
2016-09-28T06:43:24.090Z,16.71
2016-09-28T06:44:24.660Z,16.71
2016-09-28T06:45:24.609Z,16.6
2016-09-28T06:46:24.254Z,16.62
2016-09-28T06:47:24.194Z,16.62
2016-09-28T06:48:24.686Z,16.77
2016-09-28T06:49:24.619Z,16.7
2016-09-28T06:50:24.264Z,16.7
2016-09-28T06:51:24.629Z,16.74
2016-09-28T06:52:24.282Z,16.88
2016-09-28T06:53:24.439Z,16.83
2016-09-28T06:54:24.475Z,16.81
2016-09-28T06:55:24.148Z,16.8
2016-09-28T06:56:24.094Z,16.83
2016-09-28T06:57:24.259Z,16.78
2016-09-28T06:58:23.967Z,16.99
2016-09-28T06:59:23.855Z,16.88
2016-09-28T07:00:24.104Z,16.89
2016-09-28T07:01:23.858Z,16.92
2016-09-28T07:02:23.488Z,16.96
2016-09-28T07:03:23.332Z,17
2016-09-28T07:04:23.401Z,17.03
2016-09-28T07:05:23.640Z,16.98
2016-09-28T07:06:24.144Z,17.03
2016-09-28T07:07:23.564Z,16.96
2016-09-28T07:08:23.582Z,16.86
2016-09-28T07:09:22.867Z,16.96
2016-09-28T07:10:23.117Z,16.86
2016-09-28T07:11:23.661Z,16.95
2016-09-28T07:12:23.291Z,17
2016-09-28T07:13:23.459Z,16.92
2016-09-28T07:14:23.451Z,16.93
2016-09-28T07:15:23.198Z,16.88
2016-09-28T07:16:23.043Z,16.9
2016-09-28T07:17:23.090Z,16.86
2016-09-28T07:18:23.242Z,16.89
2016-09-28T07:19:22.382Z,16.86
2016-09-28T07:20:23.072Z,16.85
2016-09-28T07:21:23.108Z,16.85
2016-09-28T07:22:22.570Z,16.92
2016-09-28T07:23:23.023Z,16.88
2016-09-28T07:24:22.663Z,16.85
2016-09-28T07:25:22.701Z,16.99
2016-09-28T07:26:22.659Z,17.06
2016-09-28T07:27:22.502Z,17
2016-09-28T07:28:22.579Z,17.04
2016-09-28T07:29:22.507Z,17.11
2016-09-28T07:30:22.459Z,17.15
2016-09-28T07:31:22.417Z,17.28
2016-09-28T07:32:22.376Z,17.28
2016-09-28T07:33:22.225Z,17.35
2016-09-28T07:34:22.269Z,17.3
2016-09-28T07:35:21.910Z,17.38
2016-09-28T07:36:21.869Z,17.25
2016-09-28T07:37:22.111Z,17.33
2016-09-28T07:38:21.773Z,17.25
2016-09-28T07:39:21.934Z,17.25
2016-09-28T07:40:22.071Z,17.33
2016-09-28T07:41:22.162Z,17.46
2016-09-28T07:42:21.575Z,17.46
2016-09-28T07:43:22.262Z,17.48
2016-09-28T07:44:21.783Z,17.48
2016-09-28T07:45:21.753Z,17.5
2016-09-28T07:46:22.503Z,17.36
2016-09-28T07:47:21.834Z,17.4
2016-09-28T07:48:21.320Z,17.46
2016-09-28T07:49:21.553Z,17.47
2016-09-28T07:50:21.209Z,17.54
2016-09-28T07:51:21.483Z,17.64
2016-09-28T07:52:21.696Z,17.69
2016-09-28T07:53:21.364Z,17.78
2016-09-28T07:54:21.242Z,17.7
2016-09-28T07:55:21.462Z,17.66
2016-09-28T07:56:21.137Z,17.53
2016-09-28T07:57:21.380Z,17.59
2016-09-28T07:58:21.128Z,17.62
2016-09-28T07:59:20.954Z,17.53
2016-09-28T08:00:21.073Z,17.63
2016-09-28T08:01:21.101Z,17.7
2016-09-28T08:02:21.160Z,17.66
2016-09-28T08:03:21.092Z,17.7
2016-09-28T08:04:20.922Z,17.73
2016-09-28T08:05:20.793Z,17.7
2016-09-28T08:06:20.748Z,17.67
2016-09-28T08:07:20.409Z,17.73
2016-09-28T08:08:20.528Z,17.76
2016-09-28T08:09:20.629Z,17.73
2016-09-28T08:10:20.250Z,17.7
2016-09-28T08:11:20.521Z,17.7
2016-09-28T08:12:20.654Z,17.76
2016-09-28T08:13:20.393Z,17.78
2016-09-28T08:14:20.361Z,17.84
2016-09-28T08:15:20.345Z,17.89
2016-09-28T08:16:20.269Z,17.88
2016-09-28T08:17:20.214Z,17.82
2016-09-28T08:18:19.854Z,17.85
2016-09-28T08:19:20.351Z,17.81
2016-09-28T08:20:20.096Z,17.82
2016-09-28T08:21:19.730Z,17.85
2016-09-28T08:22:19.673Z,17.78
2016-09-28T08:23:20.031Z,17.85
2016-09-28T08:24:19.870Z,17.84
2016-09-28T08:25:19.931Z,17.82
2016-09-28T08:26:20.014Z,17.79
2016-09-28T08:27:19.742Z,17.74
2016-09-28T08:28:19.088Z,17.78
2016-09-28T08:29:19.342Z,17.87
2016-09-28T08:30:19.835Z,17.81
2016-09-28T08:31:19.645Z,17.88
2016-09-28T08:32:19.871Z,17.87
2016-09-28T08:33:19.180Z,17.89
2016-09-28T08:34:19.504Z,17.89
2016-09-28T08:35:19.434Z,17.84
2016-09-28T08:36:20.128Z,17.87
2016-09-28T08:37:19.288Z,17.85
2016-09-28T08:38:18.931Z,17.85
2016-09-28T08:39:19.186Z,17.81
2016-09-28T08:40:19.605Z,17.85
2016-09-28T08:41:19.803Z,17.85
2016-09-28T08:42:18.919Z,17.85
2016-09-28T08:43:19.288Z,17.87
2016-09-28T08:44:18.706Z,17.81
2016-09-28T08:45:18.945Z,17.82
2016-09-28T08:46:19.057Z,17.91
2016-09-28T08:47:18.799Z,17.87
2016-09-28T08:48:18.982Z,17.94
2016-09-28T08:49:18.740Z,18
2016-09-28T08:50:18.388Z,18
2016-09-28T08:51:18.603Z,18
2016-09-28T08:52:18.561Z,18.03
2016-09-28T08:53:18.721Z,18.15
2016-09-28T08:54:18.157Z,18.15
2016-09-28T08:55:18.428Z,18.12
2016-09-28T08:56:18.078Z,18.07
2016-09-28T08:57:18.318Z,18.12
2016-09-28T08:58:18.301Z,18.09
2016-09-28T08:59:18.108Z,17.95
2016-09-28T09:00:17.892Z,18.03
2016-09-28T09:01:18.039Z,18.06
2016-09-28T09:02:17.797Z,17.99
2016-09-28T09:03:18.031Z,18.03
2016-09-28T09:04:17.667Z,18.07
2016-09-28T09:05:17.624Z,18.15
2016-09-28T09:06:17.637Z,18.13
2016-09-28T09:07:17.917Z,18.12
2016-09-28T09:08:18.084Z,18.03
2016-09-28T09:09:17.477Z,18.1
2016-09-28T09:10:17.578Z,18.09
2016-09-28T09:11:17.722Z,18.15
2016-09-28T09:12:17.711Z,18.06
2016-09-28T09:13:17.561Z,18.17
2016-09-28T09:14:17.535Z,18.17
2016-09-28T09:15:17.884Z,18.19
2016-09-28T09:16:17.410Z,18.24
2016-09-28T09:17:17.360Z,18.19
2016-09-28T09:18:17.038Z,18.31
2016-09-28T09:19:17.413Z,18.22
2016-09-28T09:20:17.676Z,18.24
2016-09-28T09:21:17.229Z,18.33
2016-09-28T09:22:17.156Z,18.37
2016-09-28T09:23:17.212Z,18.31
2016-09-28T09:24:16.800Z,18.34
2016-09-28T09:25:17.054Z,18.37
2016-09-28T09:26:16.950Z,18.36
2016-09-28T09:27:16.907Z,18.46
2016-09-28T09:28:16.886Z,18.5
2016-09-28T09:29:16.812Z,18.52
2016-09-28T09:30:17.188Z,18.55
2016-09-28T09:31:16.734Z,18.55
2016-09-28T09:32:16.663Z,18.61
2016-09-28T09:33:16.658Z,18.65
2016-09-28T09:34:15.965Z,18.74
2016-09-28T09:35:16.598Z,18.72
2016-09-28T09:36:16.491Z,18.73
2016-09-28T09:37:16.346Z,18.74
2016-09-28T09:38:16.261Z,18.68
2016-09-28T09:39:16.546Z,18.7
2016-09-28T09:40:16.366Z,18.64
2016-09-28T09:41:15.920Z,18.65
2016-09-28T09:42:16.238Z,18.68
2016-09-28T09:43:16.208Z,18.7
2016-09-28T09:44:15.844Z,18.67
2016-09-28T09:45:16.152Z,18.68
2016-09-28T09:46:16.292Z,18.67
2016-09-28T09:47:15.986Z,18.54
2016-09-28T09:48:15.902Z,18.55
2016-09-28T09:49:16.072Z,18.65
2016-09-28T09:50:15.555Z,18.58
2016-09-28T09:51:15.782Z,18.68
2016-09-28T09:52:15.430Z,18.73
2016-09-28T09:53:15.752Z,18.8
2016-09-28T09:54:15.990Z,18.82
2016-09-28T09:55:15.633Z,18.86
2016-09-28T09:56:15.249Z,18.84
2016-09-28T09:57:15.501Z,18.95
2016-09-28T09:58:15.366Z,18.94
2016-09-28T09:59:15.407Z,18.94
2016-09-28T10:00:14.749Z,18.91
2016-09-28T10:01:14.744Z,19.18
2016-09-28T10:02:15.468Z,19.17
2016-09-28T10:03:15.348Z,19.2
2016-09-28T10:04:15.289Z,19.2
2016-09-28T10:05:15.113Z,19.18
2016-09-28T10:06:14.875Z,19.17
2016-09-28T10:07:15.210Z,19.24
2016-09-28T10:08:15.018Z,19.17
2016-09-28T10:09:15.287Z,19.18
2016-09-28T10:10:15.314Z,19.15
2016-09-28T10:11:14.240Z,19.23
2016-09-28T10:12:14.804Z,19.23
2016-09-28T10:13:14.954Z,19.18
2016-09-28T10:14:14.952Z,19.21
2016-09-28T10:15:14.865Z,19.25
2016-09-28T10:16:14.348Z,19.24
2016-09-28T10:17:14.583Z,19.23
2016-09-28T10:18:14.560Z,19.18
2016-09-28T10:19:14.502Z,19.23
2016-09-28T10:20:14.200Z,19.25
2016-09-28T10:21:14.077Z,19.24
2016-09-28T10:22:14.020Z,19.21
2016-09-28T10:23:14.289Z,19.25
2016-09-28T10:24:14.247Z,19.38
2016-09-28T10:25:14.205Z,19.35
2016-09-28T10:26:13.581Z,19.39
2016-09-28T10:27:13.855Z,19.21
2016-09-28T10:28:13.745Z,19.14
2016-09-28T10:29:14.039Z,19.15
2016-09-28T10:30:13.929Z,19.15
2016-09-28T10:31:13.608Z,19.11
2016-09-28T10:32:14.177Z,19.15
2016-09-28T10:33:13.815Z,19.13
2016-09-28T10:34:14.021Z,19.17
2016-09-28T10:35:15.473Z,19.11
2016-09-28T10:36:13.506Z,19.14
2016-09-28T10:37:13.403Z,19.17
2016-09-28T10:38:13.854Z,19.24
2016-09-28T10:39:13.539Z,19.4
2016-09-28T10:40:13.836Z,19.38
2016-09-28T10:41:13.853Z,19.39
2016-09-28T10:42:13.398Z,19.43
2016-09-28T10:43:13.548Z,19.61
2016-09-28T10:44:13.292Z,19.63
2016-09-28T10:45:13.023Z,19.76
2016-09-28T10:46:13.333Z,19.73
2016-09-28T10:47:13.399Z,19.78
2016-09-28T10:48:13.165Z,19.86
2016-09-28T10:49:13.151Z,19.88
2016-09-28T10:50:12.730Z,20.02
2016-09-28T10:51:13.194Z,20.1
2016-09-28T10:52:12.872Z,20.2
2016-09-28T10:53:12.963Z,20.39
2016-09-28T10:54:12.566Z,20.53
2016-09-28T10:55:12.841Z,20.62
2016-09-28T10:56:12.839Z,20.71
2016-09-28T10:57:12.396Z,20.81
2016-09-28T10:58:12.654Z,20.93
2016-09-28T10:59:12.596Z,21.09
2016-09-28T11:00:12.448Z,21.13
2016-09-28T11:01:12.215Z,21.02
2016-09-28T11:02:12.773Z,21.05
2016-09-28T11:03:12.630Z,21.11
2016-09-28T11:04:12.370Z,21.13
2016-09-28T11:05:12.932Z,21.17
2016-09-28T11:06:11.992Z,21.16
2016-09-28T11:07:12.670Z,21.17
2016-09-28T11:08:13.562Z,21.26
2016-09-28T11:09:13.201Z,21.26
2016-09-28T11:10:11.852Z,21.27
2016-09-28T11:11:12.731Z,21.3
2016-09-28T11:12:12.251Z,21.38
2016-09-28T11:13:12.121Z,21.39
2016-09-28T11:14:12.156Z,21.38
2016-09-28T11:15:12.045Z,21.34
2016-09-28T11:16:11.548Z,21.42
2016-09-28T11:17:11.834Z,21.41
2016-09-28T11:18:11.181Z,21.48
2016-09-28T11:19:11.456Z,21.42
2016-09-28T11:20:11.685Z,21.48
2016-09-28T11:21:13.756Z,21.42
2016-09-28T11:22:11.641Z,21.39
2016-09-28T11:23:11.415Z,21.38
2016-09-28T11:24:11.636Z,21.38
2016-09-28T11:25:11.607Z,21.27
2016-09-28T11:26:11.097Z,21.35
2016-09-28T11:27:11.313Z,21.32
2016-09-28T11:28:10.903Z,21.35
2016-09-28T11:29:11.464Z,21.32
2016-09-28T11:30:11.292Z,21.44
2016-09-28T11:31:11.399Z,21.39
2016-09-28T11:32:11.418Z,21.38
2016-09-28T11:33:11.172Z,21.48
2016-09-28T11:34:10.921Z,21.5
2016-09-28T11:35:11.538Z,21.61
2016-09-28T11:36:10.845Z,21.66
2016-09-28T11:37:10.830Z,21.64
2016-09-28T11:38:10.565Z,21.64
2016-09-28T11:39:10.824Z,21.71
2016-09-28T11:40:11.160Z,21.61
2016-09-28T11:41:10.449Z,21.64
2016-09-28T11:42:25.449Z,21.56
2016-09-28T11:43:10.334Z,21.6
2016-09-28T11:44:11.654Z,21.61
2016-09-28T11:45:10.601Z,21.64
2016-09-28T11:46:10.191Z,21.72
2016-09-28T11:47:10.460Z,21.81
2016-09-28T11:48:10.615Z,21.88
2016-09-28T11:49:11.650Z,21.95
2016-09-28T11:50:09.719Z,21.97
2016-09-28T11:51:10.188Z,22.04
2016-09-28T11:52:10.018Z,21.97
2016-09-28T11:53:10.206Z,22.01
2016-09-28T11:54:10.163Z,22.02
2016-09-28T11:55:10.314Z,22.07
2016-09-28T11:56:10.716Z,22.04
2016-09-28T11:57:09.454Z,22.07
2016-09-28T11:58:10.013Z,22.1
2016-09-28T11:59:09.624Z,22.06
2016-09-28T12:00:09.573Z,22.22
2016-09-28T12:01:09.893Z,22.25
2016-09-28T12:02:10.093Z,22.27
2016-09-28T12:03:11.270Z,22.34
2016-09-28T12:04:09.392Z,22.32
2016-09-28T12:05:09.367Z,22.29
2016-09-28T12:06:09.384Z,22.25
2016-09-28T12:07:09.557Z,22.29
2016-09-28T12:08:09.604Z,22.25
2016-09-28T12:09:09.290Z,22.13
2016-09-28T12:10:09.332Z,22.14
2016-09-28T12:11:08.785Z,22.13
2016-09-28T12:12:09.068Z,22.1
2016-09-28T12:13:09.448Z,22.14
2016-09-28T12:14:09.274Z,22.17
2016-09-28T12:15:08.921Z,22.16
2016-09-28T12:16:08.948Z,22.13
2016-09-28T12:17:09.164Z,22.23
2016-09-28T12:18:08.796Z,22.29
2016-09-28T12:19:09.057Z,22.35
2016-09-28T12:20:09.016Z,22.34
2016-09-28T12:21:09.010Z,22.38
2016-09-28T12:22:08.928Z,22.43
2016-09-28T12:23:08.683Z,22.46
2016-09-28T12:24:08.850Z,22.38
2016-09-28T12:25:08.766Z,22.5
2016-09-28T12:26:08.958Z,22.53
2016-09-28T12:27:08.674Z,22.47
2016-09-28T12:28:08.646Z,22.57
2016-09-28T12:29:07.991Z,22.65
2016-09-28T12:30:08.548Z,22.69
2016-09-28T12:31:08.497Z,22.77
2016-09-28T12:32:08.454Z,22.69
2016-09-28T12:33:08.103Z,22.68
2016-09-28T12:34:08.412Z,22.67
2016-09-28T12:35:08.224Z,22.69
2016-09-28T12:36:08.271Z,22.62
2016-09-28T12:37:08.249Z,22.71
2016-09-28T12:38:07.896Z,22.75
2016-09-28T12:39:08.164Z,22.77
2016-09-28T12:40:08.310Z,22.77
2016-09-28T12:41:08.181Z,22.94
2016-09-28T12:42:07.715Z,22.86
2016-09-28T12:43:08.002Z,22.94
2016-09-28T12:44:07.514Z,23.07
2016-09-28T12:45:07.381Z,23.08
2016-09-28T12:46:08.377Z,23.08
2016-09-28T12:47:07.824Z,23.09
2016-09-28T12:48:07.892Z,23.01
2016-09-28T12:49:07.759Z,23.05
2016-09-28T12:50:07.854Z,23.02
2016-09-28T12:51:07.014Z,23.17
2016-09-28T12:52:06.995Z,23.09
2016-09-28T12:53:07.577Z,23.08
2016-09-28T12:54:07.905Z,22.94
2016-09-28T12:55:07.444Z,23.04
2016-09-28T12:56:07.292Z,23.01